Flight Track Log - Related Links

Times and Time Zones

All times are in EDT time to prevent confusion due to time zone crossing. See the ASQ5874 flight status page for this flight to view local times or setup timezone preferences in your user account.

Time Position Orientation Groundspeed Altitude Reporting Facility
EDT Latitude Longitude Course Direction KTS MPH feet Rate Location/Type
Fri 08:15:46 37.6361 -97.4469 North 175 201 1,900  Level Kansas City Center
Fri 08:16:53 37.6167 -97.5056 247° West 205 236 4,500 2,286 Climbing Kansas City Center
Fri 08:18:00 37.9134 -97.3962 North  Level FlightAware Approximate
Fri 08:18:13 37.6956 -97.5025 North 257 296 7,500  Level Kansas City Center
Fri 08:19:00 38.0069 -97.3846 North  Level FlightAware Approximate
Fri 08:19:13 37.7681 -97.4842 11° North 264 304 9,500  Level Kansas City Center
Fri 08:20:00 38.1004 -97.3729 North  Level FlightAware Approximate
Fri 08:20:14 37.8406 -97.4633 13° North 270 311 12,100  Level Kansas City Center
Fri 08:21:15 37.9278 -97.4378 13° North 269 310 14,500 1,967 Climbing Kansas City Center
Fri 08:22:16 38.0033 -97.4178 12° North 277 319 16,100 984 Climbing Kansas City Center
Fri 08:23:17 38.0906 -97.3922 13° North 321 369 16,500 541 Climbing Kansas City Center
Fri 08:24:18 38.1850 -97.3594 15° North 349 402 17,200 1,041 Climbing Kansas City Center
Fri 08:25:18 38.2789 -97.3103 22° Northeast 362 417 18,600 1,339 Climbing Kansas City Center
Fri 08:26:19 38.3719 -97.2622 22° Northeast 362 417 19,900 1,131 Climbing Kansas City Center
Fri 08:27:20 38.4544 -97.1886 35° Northeast 374 430 20,900 1,033 Climbing Kansas City Center
Fri 08:28:21 38.4983 -97.0642 66° East 382 440 22,000 1,131 Climbing Kansas City Center
Fri 08:29:22 38.5433 -96.9386 65° Northeast 388 447 23,200 1,131 Climbing Kansas City Center
Fri 08:30:23 38.5869 -96.8119 66° East 387 445 24,300 1,230 Climbing Kansas City Center
Fri 08:31:24 38.6358 -96.6711 66° East 389 448 25,700 1,279 Climbing Kansas City Center
Fri 08:32:25 38.6767 -96.5528 66° East 381 438 26,900 1,230 Climbing Kansas City Center
Fri 08:33:26 38.7161 -96.4375 66° East 371 427 28,200 1,339 Climbing Kansas City Center
Fri 08:34:26 38.7622 -96.3078 65° Northeast 362 417 29,600 1,240 Climbing Kansas City Center
Fri 08:35:27 38.7997 -96.1967 67° East 356 410 30,700 1,131 Climbing Kansas City Center
Fri 08:36:28 38.8431 -96.0653 67° East 356 410 31,900 1,131 Climbing Kansas City Center
Fri 08:37:29 38.8814 -95.9542 66° East 356 410 33,000 1,082 Climbing Kansas City Center
Fri 08:38:30 38.9186 -95.8431 67° East 355 409 34,100 984 Climbing Kansas City Center
Fri 08:39:31 38.9628 -95.7142 66° East 353 406 35,000 443 Climbing Kansas City Center
Fri 08:40:32 39.0017 -95.5986 67° East 367 422 35,000  Level Kansas City Center
Fri 08:41:33 39.0494 -95.4564 67° East 390 449 35,000  Level Kansas City Center
Fri 08:42:34 39.0933 -95.3222 67° East 407 468 35,000  Level Kansas City Center
Fri 08:43:35 39.1378 -95.1861 67° East 412 474 35,000  Level Kansas City Center
Fri 08:44:36 39.1817 -95.0525 67° East 409 471 35,000  Level Kansas City Center
Fri 08:45:37 39.2228 -94.9286 67° East 398 458 35,000  Level Kansas City Center
Fri 08:46:38 39.2700 -94.7825 67° East 397 457 35,000  Level Kansas City Center
Fri 08:47:39 39.3153 -94.6606 64° Northeast 396 456 35,000  Level Kansas City Center
Fri 08:48:40 39.3667 -94.5397 61° Northeast 401 461 35,000  Level Kansas City Center
Fri 08:49:41 39.4233 -94.3992 62° Northeast 389 448 35,000  Level Kansas City Center
Fri 08:50:42 39.4717 -94.2811 62° Northeast 394 453 35,000  Level Kansas City Center
Fri 08:51:43 39.5197 -94.1619 62° Northeast 392 451 35,000  Level Kansas City Center
Fri 08:52:44 39.5761 -94.0197 63° Northeast 397 457 35,000  Level Kansas City Center
Fri 08:53:45 39.6256 -93.8964 62° Northeast 399 459 35,000  Level Kansas City Center
Fri 08:54:46 39.6753 -93.7725 62° Northeast 404 465 35,000  Level Kansas City Center
Fri 08:55:47 39.7306 -93.6294 63° Northeast 400 460 35,000  Level Kansas City Center
Fri 08:56:48 39.7800 -93.5014 63° Northeast 401 461 35,000  Level Kansas City Center
Fri 08:57:50 39.8297 -93.3792 62° Northeast 389 448 35,000  Level Kansas City Center
Fri 08:58:51 39.8778 -93.2517 64° Northeast 394 453 35,000  Level Kansas City Center
Fri 08:59:52 39.9236 -93.1244 65° Northeast 393 452 35,000  Level Kansas City Center
Fri 09:00:53 39.9703 -92.9981 64° Northeast 391 450 35,000 -49 Level Kansas City Center
Fri 09:01:54 40.0253 -92.8472 64° Northeast 390 449 34,900 -443 Descending Kansas City Center
Fri 09:02:55 40.0664 -92.7353 64° Northeast 386 444 34,100 -885 Descending Kansas City Center
Fri 09:03:56 40.1186 -92.5908 65° Northeast 393 452 33,100 -541 Descending Kansas City Center
Fri 09:04:57 40.1647 -92.4639 65° Northeast 401 461 33,000 -49 Descending Kansas City Center
Fri 09:05:58 40.2114 -92.3386 64° Northeast 403 464 33,000  Level Kansas City Center
Fri 09:06:59 40.2594 -92.2061 65° Northeast 409 471 33,000  Level Kansas City Center
Fri 09:08:00 40.3178 -92.0419 65° Northeast 417 480 33,000  Level Kansas City Center
Fri 09:09:01 40.3672 -91.9011 65° Northeast 426 490 33,000  Level Kansas City Center
Fri 09:10:02 40.4186 -91.7581 65° Northeast 433 498 33,000  Level Kansas City Center
Fri 09:11:04 40.4697 -91.6125 65° Northeast 438 504 33,000  Level Kansas City Center
Fri 09:12:05 40.5219 -91.4642 65° Northeast 447 514 33,000  Level Kansas City Center
Fri 09:13:06 40.5747 -91.3136 65° Northeast 454 522 33,000  Level Kansas City Center
Fri 09:14:07 40.6292 -91.1558 66° East 460 529 33,000  Level Kansas City Center
Fri 09:14:46 40.6631 -91.0619 65° Northeast 467 537 33,000  Level Chicago Center
Fri 09:15:48 40.7283 -90.8725 65° Northeast 472 543 33,000  Level Chicago Center
Fri 09:16:49 40.7842 -90.7122 65° Northeast 479 551 33,000  Level Chicago Center
Fri 09:17:51 40.8389 -90.5522 66° East 478 550 33,000 -195 Level Chicago Center
Fri 09:18:52 40.8933 -90.3911 66° East 478 550 32,600 -683 Descending Chicago Center
Fri 09:19:54 40.9481 -90.2289 66° East 479 551 31,600 -1,073 Descending Chicago Center
Fri 09:20:55 41.0019 -90.0675 66° East 476 548 30,400 -1,377 Descending Chicago Center
Fri 09:21:56 41.0569 -89.9039 66° East 479 551 28,800 -1,805 Descending Chicago Center
Fri 09:22:58 41.1106 -89.7400 66° East 476 548 26,700 -2,244 Descending Chicago Center
Fri 09:23:59 41.1633 -89.5828 66° East 462 532 24,200 -2,537 Descending Chicago Center
Fri 09:25:01 41.2228 -89.4361 62° Northeast 449 517 21,500 -2,780 Descending Chicago Center
Fri 09:26:02 41.2792 -89.2978 61° Northeast 428 493 18,500 -2,878 Descending Chicago Center
Fri 09:27:04 41.3361 -89.1528 62° Northeast 401 461 15,600 -2,537 Descending Chicago Center
Fri 09:28:05 41.3861 -89.0264 62° Northeast 390 449 13,300 -1,854 Descending Chicago Center
Fri 09:29:07 41.4369 -88.9006 62° Northeast 390 449 11,800 -1,122 Descending Chicago Center
Fri 09:30:08 41.4853 -88.7764 63° Northeast 381 438 11,000 -390 Descending Chicago Center
Fri 09:31:10 41.5350 -88.6508 62° Northeast 383 441 11,000  Level Chicago Center
Fri 09:32:11 41.5939 -88.5019 62° Northeast 380 437 11,000  Level Chicago Center
Fri 09:33:12 41.6544 -88.3889 54° Northeast 374 430 11,000  Level Chicago Center
Fri 09:34:14 41.7181 -88.2783 52° Northeast 372 428 11,000  Level Chicago Center
Fri 09:35:15 41.7839 -88.1661 52° Northeast 379 436 11,000 -195 Level Chicago Center
Fri 09:36:17 41.8344 -88.0581 58° Northeast 332 382 10,600 -1,024 Descending Chicago Center
Fri 09:37:18 41.8656 -87.9583 67° East 296 341 8,900 -1,561 Descending Chicago Center
Fri 09:38:20 41.9078 -87.8764 55° Northeast 280 322 7,400 -878 Descending Chicago Center
Fri 09:39:21 41.9558 -87.8053 48° Northeast 258 297 7,100 -1,122 Descending Chicago Center
Fri 09:40:23 41.9986 -87.7422 48° Northeast 234 269 5,100 -1,935 Descending Chicago Center

Login

Don't have an account? Register now (free) for customized features, flight alerts, and more!